NEODyS-2

Near Earth Objects - Dynamic Site
NEODyS ∴ Observatories ∴ Site 691 ∴ Obs & residuals
Contact »
691  ▹ 
OBSERVATIONS AND RESIDUALS

691-Steward Observatory, Kitt Peak-Spacewatch

Detections | Residuals | Detections & Residuals

[1-200] [201-400] [401-600] [601-800] [801-1000] [1001-1200] [1201-1400] [1401-1600] [1601-1800] [1801-2000] [2001-2200] [2201-2400] [2401-2600] [2601-2800] [2801-3000] [3001-3200] [3201-3400] [3401-3600] [3601-3800] [3801-4000] [4001-4200] [4201-4400] [4401-4600] [4601-4800] [4801-5000] [5001-5200] [5201-5400] [5401-5600] [5601-5800] [5801-6000] [6001-6200] [6201-6400] [6401-6600] [6601-6800] [6801-7000] [7001-7200] [7201-7400] [7401-7600] [7601-7800] [7801-8000] [8001-8200] [8201-8400] [8401-8600] [8601-8800] [8801-9000] [9001-9200] [9201-9400] [9401-9600] [9601-9800] [9801-10000] [10001-10200] [10201-10400] [10401-10600] [10601-10800] [10801-11000] [11001-11200] [11201-11400] [11401-11600] [11601-11800] [11801-12000] [12001-12200] [12201-12400] [12401-12600] [12601-12800] [12801-13000] [13001-13200] [13201-13400] [13401-13600] [13601-13800] [13801-14000] [14001-14200] [14201-14400] [14401-14600] [14601-14800] [14801-15000] [15001-15200] [15201-15400] [15401-15600] [15601-15800] [15801-16000] [16001-16200] [16201-16400] [16401-16600] [16601-16800] [16801-17000] [17001-17200] [17201-17400] [17401-17600] [17601-17800] [17801-18000] [18001-18200] [18201-18400] [18401-18600] [18601-18800] [18801-19000] [19001-19200] [19201-19400] [19401-19600] [19601-19800] [19801-20000] [20001-20200] [20201-20400] [20401-20600] [20601-20800] [20801-21000] [21001-21200] [21201-21400] [21401-21600] [21601-21800] [21801-22000] [22001-22200] [22201-22400] [22401-22600] [22601-22800] [22801-23000] [23001-23200] [23201-23400] [23401-23600] [23601-23800] [23801-24000] [24001-24200] [24201-24400] [24401-24600] [24601-24800] [24801-25000] [25001-25200] [25201-25400] [25401-25600] [25601-25800] [25801-26000] [26001-26200] [26201-26400] [26401-26600] [26601-26800] [26801-27000] [27001-27200] [27201-27400] [27401-27600] [27601-27800] [27801-28000] [28001-28200] [28201-28400] [28401-28600] [28601-28800] [28801-29000] [29001-29200] [29201-29400] [29401-29600] [29601-29800] [29801-30000] [30001-30200] [30201-30400] [30401-30600] [30601-30800] [30801-31000] [31001-31200] [31201-31400] [31401-31600] [31601-31800] [31801-32000] [32001-32200] [32201-32400] [32401-32600] [32601-32800] [32801-33000] [33001-33200] [33201-33400] [33401-33600] [33601-33800] [33801-34000] [34001-34200] [34201-34400] [34401-34600] [34601-34800] [34801-35000] [35001-35200] [35201-35400] [35401-35600] [35601-35800] [35801-36000] [36001-36200] [36201-36400] [36401-36600] [36601-36800] [36801-37000] [37001-37200] [37201-37400] [37401-37600] [37601-37800] [37801-38000] [38001-38200] [38201-38400] [38401-38600] [38601-38800] [38801-39000] [39001-39200] [39201-39400] [39401-39600] [39601-39800] [39801-40000] [40001-40200] [40201-40400] [40401-40600] [40601-40800] [40801-41000] [41001-41200] [41201-41400] [41401-41600] [41601-41800] [41801-42000] [42001-42200] [42201-42400] [42401-42600] [42601-42800] [42801-43000] [43001-43200] [43201-43400] [43401-43600] [43601-43800] [43801-44000] [44001-44200] [44201-44400] [44401-44600] [44601-44800] [44801-45000] [45001-45200] [45201-45400] [45401-45600] [45601-45800] [45801-46000] [46001-46200] [46201-46400] [46401-46600] [46601-46800] [46801-47000] [47001-47200] [47201-47400] [47401-47600] [47601-47800] [47801-48000] [48001-48200] [48201-48400] [48401-48600] [48601-48800] [48801-49000] [49001-49200] [49201-49400] [49401-49600] [49601-49800] [49801-50000] [50001-50200] [50201-50388]

Designation T Tech N Date Right Ascension Declination Apparent Magnitude Star Catalog Site code χ Used A Used M
yr-mo-day precision hr:min:sec precision rms F bias residual deg min sec precision rms F bias residual mag/col rms residual
2017QM18 O C 2017-09-18.12439 1.000E-05 17:14:29.430 1.500E-01 0.500 F 0.099 -0.337 +29° 53' 37.60" 1.000E-01 0.500 F 0.242 0.084 20.3 V 0.70 -0.36 o 691 0.70 Yes Yes
2017SH10 O C K 2017-09-18.13043 1.000E-05 20:11:57.060 1.500E-01 0.500 F -0.128 0.255 -15° 58' 32.90" 1.000E-01 0.500 F 0.305 -0.279 18.7 R 0.70 -0.71 o 691 0.76 Yes Yes
2017SH10 O C K 2017-09-18.13581 1.000E-05 20:11:58.400 1.500E-01 0.500 F -0.128 0.312 -15° 58' 20.40" 1.000E-01 0.500 F 0.305 0.145 18.7 R 0.70 -0.71 o 691 0.69 Yes Yes
2017SH10 O C K 2017-09-18.14119 1.000E-05 20:11:59.730 1.500E-01 0.500 F -0.128 0.230 -15° 58' 08.50" 1.000E-01 0.500 F 0.305 -0.039 18.6 R 0.70 -0.81 o 691 0.47 Yes Yes
2017RU15 O C 2017-09-18.15020 1.000E-05 21:24:33.680 1.500E-01 0.500 F -0.114 -0.271 -10° 12' 18.90" 1.000E-01 0.500 F 0.265 -0.085 19.8 V 0.70 0.04 o 691 0.57 Yes Yes
2017RU15 O C 2017-09-18.15696 1.000E-05 21:24:34.800 1.500E-01 0.500 F -0.114 -0.204 -10° 11' 30.70" 1.000E-01 0.500 F 0.265 0.030 19.6 V 0.70 -0.16 o 691 0.41 Yes Yes
2017RU15 O C 2017-09-18.16366 1.000E-05 21:24:35.900 1.500E-01 0.500 F -0.114 -0.239 -10° 10' 43.40" 1.000E-01 0.500 F 0.265 -0.313 19.8 V 0.70 0.04 o 691 0.79 Yes Yes
2017QL35 O C H 2017-09-18.17192 1.000E-05 21:40:30.650 1.500E-01 0.500 F 0.024 0.154 +11° 03' 44.00" 1.000E-01 0.500 F 0.230 -0.225 o 691 0.55 Yes No
2017RV15 O C 2017-09-18.17556 1.000E-05 22:52:02.850 1.500E-01 0.500 F -0.035 -0.148 -04° 14' 57.90" 1.000E-01 0.500 F 0.349 0.238 20.3 V 0.70 0.44 o 691 0.57 Yes Yes
2017RV15 O C 2017-09-18.18188 1.000E-05 22:52:00.740 1.500E-01 0.500 F -0.035 -0.560 -04° 14' 28.80" 1.000E-01 0.500 F 0.349 0.133 20.0 V 0.70 0.14 o 691 1.16 Yes Yes
2017QL35 O C H 2017-09-18.18458 1.000E-05 21:40:32.610 1.500E-01 0.500 F 0.025 -0.021 +11° 03' 18.90" 1.000E-01 0.500 F 0.231 0.050 o 691 0.11 Yes No
2017RV15 O C 2017-09-18.18822 1.000E-05 22:51:58.610 1.500E-01 0.500 F -0.035 -1.145 -04° 13' 59.50" 1.000E-01 0.500 F 0.349 0.131 19.8 V 0.70 -0.06 o 691 2.32 Yes Yes
2017RO2 O C H 2017-09-18.19067 1.000E-05 22:49:58.330 1.500E-01 0.500 F -0.060 0.562 -12° 58' 24.40" 1.000E-01 0.500 F 0.209 0.049 20.2 R 0.70 0.65 o 691 1.14 Yes Yes
2017RP2 O C K 2017-09-18.19183 1.000E-05 23:04:19.030 1.500E-01 0.500 F -0.244 -0.629 -22° 08' 44.70" 1.000E-01 0.500 F 0.136 0.549 o 691 1.68 Yes No
2017RO2 O C H 2017-09-18.19723 1.000E-05 22:49:56.480 1.500E-01 0.500 F -0.060 0.305 -12° 57' 59.40" 1.000E-01 0.500 F 0.209 0.161 20.1 R 0.70 0.55 o 691 0.69 Yes Yes
2017RP2 O C K 2017-09-18.19841 1.000E-05 23:04:18.000 1.500E-01 0.500 F -0.244 -0.085 -22° 08' 58.90" 1.000E-01 0.500 F 0.136 0.124 o 691 0.30 Yes No
2017RO2 O C H 2017-09-18.20381 1.000E-05 22:49:54.640 1.500E-01 0.500 F -0.060 0.294 -12° 57' 34.60" 1.000E-01 0.500 F 0.209 -0.011 20.5 R 0.70 0.95 o 691 0.59 Yes Yes
2017RP2 O C K 2017-09-18.20497 1.000E-05 23:04:16.950 1.500E-01 0.500 F -0.135 0.077 -22° 09' 12.90" 1.000E-01 0.500 F 0.351 -0.390 20.1 R 0.70 0.01 o 691 0.80 Yes Yes
2017SE2 O C 2017-09-18.21172 1.000E-05 23:55:50.160 1.500E-01 0.500 F -0.319 -0.289 -26° 17' 31.80" 1.000E-01 0.500 F 0.370 -0.114 19.9 V 0.70 0.21 o 691 0.62 Yes Yes
2017RX15 O C K 2017-09-18.21324 1.000E-05 23:08:24.110 1.500E-01 0.612 F -0.159 0.157 -04° 00' 38.70" 1.000E-01 0.612 F 0.281 -0.238 19.3 R 0.70 -0.38 o 691 0.47 Yes Yes
2017RL15 O C K 2017-09-18.21577 1.000E-05 23:12:25.260 1.500E-01 0.500 F -0.072 0.016 -03° 33' 18.20" 1.000E-01 0.500 F 0.212 -0.028 20.1 R 0.70 -0.27 o 691 0.07 Yes Yes
2017RX15 O C 2017-09-18.21577 1.000E-05 23:08:23.850 1.500E-01 0.612 F -0.159 -0.032 -04° 00' 23.40" 1.000E-01 0.612 F 0.281 -0.055 20.2 V 0.70 0.12 o 691 0.10 Yes Yes
2017SE2 O C 2017-09-18.22040 1.000E-05 23:55:48.250 1.500E-01 0.500 F -0.319 0.070 -26° 17' 02.10" 1.000E-01 0.500 F 0.370 0.102 20.1 V 0.70 0.41 o 691 0.25 Yes Yes
2017RX15 O C K 2017-09-18.22185 1.000E-05 23:08:23.250 1.500E-01 0.612 F -0.159 -0.099 -03° 59' 47.10" 1.000E-01 0.612 F 0.281 -0.085 19.6 R 0.70 -0.08 o 691 0.21 Yes Yes
2017RL15 O C K 2017-09-18.22438 1.000E-05 23:12:26.070 1.500E-01 0.500 F -0.072 0.328 -03° 33' 38.20" 1.000E-01 0.500 F 0.212 0.053 20.1 R 0.70 -0.27 o 691 0.67 Yes Yes
2017RX15 O C 2017-09-18.22438 1.000E-05 23:08:23.000 1.500E-01 0.612 F -0.159 -0.126 -03° 59' 31.90" 1.000E-01 0.612 F 0.281 -0.004 20.0 V 0.70 -0.08 o 691 0.21 Yes Yes
2017SE2 O C 2017-09-18.22900 1.000E-05 23:55:46.330 1.500E-01 0.500 F -0.319 0.097 -26° 16' 33.10" 1.000E-01 0.500 F 0.370 -0.147 19.6 V 0.70 -0.09 o 691 0.35 Yes Yes
2017RX15 O C K 2017-09-18.23048 1.000E-05 23:08:22.430 1.500E-01 0.612 F -0.159 0.312 -03° 58' 55.40" 1.000E-01 0.612 F 0.281 0.039 19.5 R 0.70 -0.18 o 691 0.52 Yes Yes
2017RL15 O C K 2017-09-18.23303 1.000E-05 23:12:26.840 1.500E-01 0.500 F -0.072 0.009 -03° 33' 58.30" 1.000E-01 0.500 F 0.212 0.126 o 691 0.25 Yes No
2017RX15 O C 2017-09-18.23303 1.000E-05 23:08:22.160 1.500E-01 0.612 F -0.159 0.025 -03° 58' 40.50" 1.000E-01 0.612 F 0.281 -0.302 20.4 V 0.70 0.32 o 691 0.50 Yes Yes
2017RY15 O C 2017-09-18.26720 1.000E-05 23:48:53.010 1.500E-01 0.500 F -0.174 -0.086 -05° 10' 17.50" 1.000E-01 0.500 F 0.374 0.225 19.0 V 0.70 -0.24 o 691 0.48 Yes Yes
1998OR2 O C 2017-09-18.26720 1.000E-05 23:51:00.680 1.500E-01 0.500 F -0.275 0.129 -05° 48' 35.30" 1.000E-01 0.500 F 0.383 0.610 20.0 V 0.70 -0.57 o 691 1.25 Yes Yes
2017RY15 O C 2017-09-18.27286 1.000E-05 23:48:50.900 1.500E-01 0.500 F -0.174 -0.259 -05° 09' 53.50" 1.000E-01 0.500 F 0.374 0.198 19.2 V 0.70 -0.04 o 691 0.65 Yes Yes
1998OR2 O C 2017-09-18.27286 1.000E-05 23:51:00.290 1.500E-01 0.500 F -0.275 -0.508 -05° 48' 37.50" 1.000E-01 0.500 F 0.383 0.242 20.2 V 0.70 -0.37 o 691 1.13 Yes Yes
2017RY15 O C 2017-09-18.27846 1.000E-05 23:48:48.830 1.500E-01 0.500 F -0.174 -0.146 -05° 09' 29.90" 1.000E-01 0.500 F 0.374 0.015 19.2 V 0.70 -0.04 o 691 0.30 Yes Yes
1998OR2 O C 2017-09-18.27846 1.000E-05 23:50:59.960 1.500E-01 0.500 F -0.275 -0.304 -05° 48' 39.40" 1.000E-01 0.500 F 0.383 0.155 20.3 V 0.70 -0.27 o 691 0.68 Yes Yes
2017RD15 O C 2017-09-18.28859 1.000E-05 23:40:45.060 1.500E-01 0.500 F -0.311 0.154 -19° 50' 22.60" 1.000E-01 0.500 F 0.179 -0.512 21.0 V 0.70 -0.25 o 691 1.07 Yes Yes
2017RD15 O C 2017-09-18.29532 1.000E-05 23:40:44.460 1.500E-01 0.500 F -0.311 0.047 -19° 50' 26.90" 1.000E-01 0.500 F 0.179 0.034 21.2 V 0.70 -0.05 o 691 0.12 Yes Yes
2017RD15 O C 2017-09-18.30226 1.000E-05 23:40:43.830 1.500E-01 0.500 F -0.311 -0.220 -19° 50' 31.80" 1.000E-01 0.500 F 0.179 0.125 21.3 V 0.70 0.05 o 691 0.51 Yes Yes
2017SL2 O C H 2017-09-18.33082 1.000E-05 23:30:17.570 1.500E-01 0.500 F -0.286 0.132 -03° 22' 49.30" 1.000E-01 0.500 F 0.219 0.132 20.9 R 0.70 0.59 o 691 0.38 Yes Yes
2017SL2 O C H 2017-09-18.33812 1.000E-05 23:30:17.520 1.500E-01 0.500 F -0.286 0.442 -03° 22' 47.10" 1.000E-01 0.500 F 0.219 0.185 20.9 R 0.70 0.59 o 691 0.96 Yes Yes
2017SL2 O C H 2017-09-18.34542 1.000E-05 23:30:17.460 1.500E-01 0.500 F -0.286 0.586 -03° 22' 45.00" 1.000E-01 0.500 F 0.219 0.134 o 691 1.21 Yes No
2017MU7 O C H 2017-09-18.40972 1.000E-05 01:04:24.080 1.500E-01 0.500 F -0.272 0.078 -18° 50' 17.60" 1.000E-01 0.500 F -0.059 0.201 20.4 R 0.70 0.45 o 691 0.44 Yes Yes
2017RR15 O C H 2017-09-18.41175 1.000E-05 02:04:29.970 1.500E-01 0.500 F -0.372 0.238 -00° 53' 10.50" 1.000E-01 0.500 F 0.301 0.301 20.2 R 0.70 0.48 o 691 0.77 Yes Yes
2017MU7 O C H 2017-09-18.41531 1.000E-05 01:04:23.650 1.500E-01 0.500 F -0.272 -0.119 -18° 50' 17.40" 1.000E-01 0.500 F -0.059 0.219 20.3 R 0.70 0.35 o 691 0.50 Yes Yes
2017RR15 O C H 2017-09-18.41729 1.000E-05 02:04:29.740 1.500E-01 0.500 F -0.372 -0.301 -00° 53' 02.50" 1.000E-01 0.500 F 0.301 -0.252 20.6 R 0.70 0.88 o 691 0.79 Yes Yes
2017MU7 O C H 2017-09-18.42078 1.000E-05 01:04:23.250 1.500E-01 0.500 F -0.272 -0.023 -18° 50' 17.30" 1.000E-01 0.500 F -0.059 0.135 20.4 R 0.70 0.45 o 691 0.28 Yes Yes
2017RR15 O C H 2017-09-18.42279 1.000E-05 02:04:29.580 1.500E-01 0.500 F -0.372 0.189 -00° 52' 53.40" 1.000E-01 0.500 F 0.301 0.353 20.3 R 0.70 0.58 o 691 0.81 Yes Yes
2017SJ10 O C K 2017-09-18.45823 1.000E-05 00:42:34.570 1.500E-01 0.500 F -0.375 0.157 -09° 51' 10.30" 1.000E-01 0.500 F 0.122 -0.106 o 691 0.38 Yes No
2017SJ10 O C K 2017-09-18.46941 1.000E-05 00:42:33.460 1.500E-01 0.500 F -0.375 0.165 -09° 50' 39.70" 1.000E-01 0.500 F 0.122 -0.433 19.8 R 0.70 -0.60 o 691 0.93 Yes Yes
2017SJ10 O C K 2017-09-18.48048 1.000E-05 00:42:32.380 1.500E-01 0.500 F -0.375 0.328 -09° 50' 08.80" 1.000E-01 0.500 F 0.122 -0.163 19.8 R 0.70 -0.60 o 691 0.74 Yes Yes
2004RX109 O C H 2017-09-19.10290 1.000E-05 15:23:16.060 1.500E-01 0.500 F 0.236 -0.380 +25° 01' 02.50" 1.000E-01 0.500 F 0.226 -0.263 19.4 R 0.70 0.43 o 691 0.98 Yes Yes
2017QM18 O C K 2017-09-19.10442 1.000E-05 17:17:52.190 1.500E-01 0.500 F 0.029 0.356 +30° 00' 00.10" 1.000E-01 0.500 F 0.220 0.005 19.4 R 0.70 -0.87 o 691 0.71 Yes Yes
2004RX109 O C H 2017-09-19.10739 1.000E-05 15:23:19.240 1.500E-01 0.500 F 0.236 -0.333 +25° 01' 02.50" 1.000E-01 0.500 F 0.226 -0.147 19.4 R 0.70 0.43 o 691 0.77 Yes Yes
2017QM18 O C K 2017-09-19.10886 1.000E-05 17:17:53.090 1.500E-01 0.500 F 0.029 0.328 +30° 00' 01.80" 1.000E-01 0.500 F 0.220 0.077 19.4 R 0.70 -0.87 o 691 0.67 Yes Yes
2004RX109 O C H 2017-09-19.11183 1.000E-05 15:23:22.410 1.500E-01 0.500 F 0.236 0.043 +25° 01' 02.70" 1.000E-01 0.500 F 0.226 0.177 20.0 R 0.70 1.03 o 691 0.38 Yes Yes
2017QM18 O C K 2017-09-19.11330 1.000E-05 17:17:53.970 1.500E-01 0.500 F 0.029 0.037 +30° 00' 03.30" 1.000E-01 0.500 F 0.220 -0.047 19.3 R 0.70 -0.97 o 691 0.12 Yes Yes
2017SH10 O C K 2017-09-19.11929 1.000E-05 20:16:13.640 1.500E-01 0.500 F -0.113 0.050 -15° 21' 33.70" 1.000E-01 0.500 F 0.228 0.164 o 691 0.34 Yes No
2017QQ35 O C K 2017-09-19.12184 1.000E-05 21:25:15.360 1.500E-01 0.500 F -0.111 0.576 -06° 04' 01.10" 1.000E-01 0.500 F 0.278 -0.044 19.2 R 0.70 -0.40 o 691 1.20 Yes Yes
2017SH10 O C K 2017-09-19.12444 1.000E-05 20:16:14.910 1.500E-01 0.500 F -0.113 0.072 -15° 21' 22.90" 1.000E-01 0.500 F 0.228 -0.488 o 691 0.99 Yes No
2017QQ35 O C K 2017-09-19.12698 1.000E-05 21:25:12.900 1.500E-01 0.500 F -0.111 -0.111 -06° 03' 49.60" 1.000E-01 0.500 F 0.278 -0.090 19.3 R 0.70 -0.30 o 691 0.29 Yes Yes
2017SH10 O C K 2017-09-19.12959 1.000E-05 20:16:16.180 1.500E-01 0.500 F -0.113 0.101 -15° 21' 11.00" 1.000E-01 0.500 F 0.228 -0.046 o 691 0.22 Yes No
2017QQ35 O C K 2017-09-19.13218 1.000E-05 21:25:10.480 1.500E-01 0.500 F -0.111 0.231 -06° 03' 37.10" 1.000E-01 0.500 F 0.278 0.727 18.5 R 0.70 -1.10 o 691 1.55 Yes Yes
2017QW17 O C K 2017-09-19.13462 1.000E-05 21:49:06.930 1.500E-01 0.500 F 0.027 -0.209 -03° 52' 56.80" 1.000E-01 0.500 F 0.273 0.115 o 691 0.48 Yes No
2017RO2 O C K 2017-09-19.14070 1.000E-05 22:45:52.200 1.500E-01 0.500 F -0.128 0.227 -11° 58' 35.70" 1.000E-01 0.500 F 0.317 -0.132 18.8 R 0.70 -0.82 o 691 0.53 Yes Yes
2017QW17 O C K 2017-09-19.14454 1.000E-05 21:49:05.080 1.500E-01 0.500 F 0.027 -0.295 -03° 53' 03.00" 1.000E-01 0.500 F 0.273 -0.266 o 691 0.80 Yes No
2017RO2 O C K 2017-09-19.15063 1.000E-05 22:45:49.550 1.500E-01 0.500 F -0.128 -0.090 -11° 57' 59.00" 1.000E-01 0.500 F 0.317 -0.203 18.8 R 0.70 -0.82 o 691 0.45 Yes Yes
2017QW17 O C K 2017-09-19.15445 1.000E-05 21:49:03.220 1.500E-01 0.500 F 0.027 -0.540 -03° 53' 08.90" 1.000E-01 0.500 F 0.273 -0.361 o 691 1.31 Yes No
2017RO2 O C K 2017-09-19.16054 1.000E-05 22:45:46.950 1.500E-01 0.500 F -0.128 0.320 -11° 57' 22.00" 1.000E-01 0.500 F 0.317 0.088 18.5 R 0.70 -1.12 o 691 0.67 Yes Yes
2017SK2 O C K 2017-09-19.16422 1.000E-05 23:08:30.290 1.500E-01 0.500 F -0.211 0.093 -09° 16' 33.40" 1.000E-01 0.500 F 0.339 -0.169 o 691 0.39 Yes No
2017QG3 O C K 2017-09-19.16952 1.000E-05 22:37:57.040 1.500E-01 0.500 F -0.082 0.176 +01° 30' 34.10" 1.000E-01 0.500 F 0.296 -0.124 20.5 R 0.70 -0.25 o 691 0.43 Yes Yes
2017SK2 O C K 2017-09-19.17539 1.000E-05 23:08:30.270 1.500E-01 0.500 F -0.211 -0.383 -09° 17' 10.20" 1.000E-01 0.500 F 0.339 0.124 o 691 0.81 Yes No
2017QG3 O C K 2017-09-19.18070 1.000E-05 22:37:57.800 1.500E-01 0.500 F -0.082 -0.138 +01° 30' 46.20" 1.000E-01 0.500 F 0.296 0.199 20.6 R 0.70 -0.15 o 691 0.49 Yes Yes
2017SK2 O C K 2017-09-19.18657 1.000E-05 23:08:30.270 1.500E-01 0.500 F -0.211 -0.476 -09° 17' 47.60" 1.000E-01 0.500 F 0.339 -0.171 o 691 1.02 Yes No
2017QG3 O C K 2017-09-19.19187 1.000E-05 22:37:58.580 1.500E-01 0.500 F -0.082 -0.080 +01° 30' 58.30" 1.000E-01 0.500 F 0.296 0.540 20.2 R 0.70 -0.55 o 691 1.10 Yes Yes
2017FE1 O C H 2017-09-19.20258 1.000E-05 23:50:52.490 1.500E-01 0.500 F -0.217 -0.549 -09° 40' 23.00" 1.000E-01 0.500 F 0.051 0.514 19.9 R 0.70 0.03 o 691 1.51 Yes Yes
2017FE1 O C H 2017-09-19.20904 1.000E-05 23:50:51.910 1.500E-01 0.500 F -0.217 -0.051 -09° 40' 24.00" 1.000E-01 0.500 F 0.051 0.189 20.5 R 0.70 0.63 o 691 0.39 Yes Yes
2017FE1 O C H 2017-09-19.21552 1.000E-05 23:50:51.290 1.500E-01 0.500 F -0.217 -0.104 -09° 40' 24.90" 1.000E-01 0.500 F 0.051 -0.037 20.6 R 0.70 0.73 o 691 0.22 Yes Yes
2017SL2 O C H 2017-09-19.22001 1.000E-05 23:30:21.610 1.500E-01 0.500 F -0.286 0.127 -03° 18' 23.00" 1.000E-01 0.500 F 0.219 0.122 o 691 0.35 Yes No
2017SL2 O C H 2017-09-19.22747 1.000E-05 23:30:21.550 1.500E-01 0.500 F -0.286 0.173 -03° 18' 21.20" 1.000E-01 0.500 F 0.219 -0.337 o 691 0.76 Yes No
2017SL2 O C H 2017-09-19.23488 1.000E-05 23:30:21.480 1.500E-01 0.500 F -0.286 0.091 -03° 18' 18.70" 1.000E-01 0.500 F 0.219 -0.085 21.1 R 0.70 0.80 o 691 0.25 Yes Yes
2017SJ10 O C K 2017-09-19.24247 1.000E-05 00:41:29.230 1.500E-01 0.500 F -0.375 -0.090 -09° 15' 53.60" 1.000E-01 0.500 F 0.122 0.026 o 691 0.19 Yes No
2017SJ10 O C K 2017-09-19.25129 1.000E-05 00:41:28.360 1.500E-01 0.500 F -0.375 -0.102 -09° 15' 29.90" 1.000E-01 0.500 F 0.122 0.472 20.0 R 0.70 -0.42 o 691 0.97 Yes Yes
2017SJ10 O C K 2017-09-19.26011 1.000E-05 00:41:27.510 1.500E-01 0.500 F -0.375 0.238 -09° 15' 07.40" 1.000E-01 0.500 F 0.122 -0.290 o 691 0.76 Yes No
2017SJ2 O C K 2017-09-19.27147 1.000E-05 23:01:27.550 1.500E-01 0.500 F -0.168 1.817 -29° 35' 07.30" 1.000E-01 0.500 F 0.301 -0.750 o 691 3.91 No No
2017SE2 O C H 2017-09-19.27827 1.000E-05 23:51:59.720 1.500E-01 0.500 F -0.347 -0.188 -25° 15' 05.50" 1.000E-01 0.500 F 0.406 -0.062 19.5 R 0.70 0.26 o 691 0.40 Yes Yes
2017SJ2 O C K 2017-09-19.27948 1.000E-05 23:01:29.580 1.500E-01 0.500 F -0.168 0.975 -29° 34' 15.00" 1.000E-01 0.500 F 0.301 -0.068 o 691 1.97 Yes No
2017SE2 O C H 2017-09-19.28630 1.000E-05 23:51:57.910 1.500E-01 0.500 F -0.347 0.030 -25° 14' 36.60" 1.000E-01 0.500 F 0.406 0.061 19.6 R 0.70 0.36 o 691 0.14 Yes Yes
2017SJ2 O C K 2017-09-19.28748 1.000E-05 23:01:31.670 1.500E-01 0.500 F -0.168 0.955 -29° 33' 23.30" 1.000E-01 0.500 F 0.301 0.011 o 691 1.93 Yes No
2017SE2 O C H 2017-09-19.29431 1.000E-05 23:51:56.100 1.500E-01 0.500 F -0.347 0.197 -25° 14' 08.00" 1.000E-01 0.500 F 0.406 -0.080 o 691 0.43 Yes No
2017SG10 O C K 2017-09-19.34480 1.000E-05 00:35:00.280 1.500E-01 0.500 F -0.360 -1.628 -22° 13' 19.50" 1.000E-01 0.500 F 0.036 0.323 o 691 3.24 No No
2017SG10 O C K 2017-09-19.35034 1.000E-05 00:34:57.280 1.500E-01 0.500 F -0.360 -0.570 -22° 12' 48.40" 1.000E-01 0.500 F 0.036 -0.076 o 691 1.17 Yes No
2017SH2 O C K 2017-09-19.35653 1.000E-05 01:43:41.570 1.500E-01 0.500 F -0.199 -0.004 -06° 31' 05.20" 1.000E-01 0.500 F 0.218 -0.163 o 691 0.33 Yes No
2017SH2 O C K 2017-09-19.37601 1.000E-05 01:43:42.770 1.500E-01 0.500 F -0.199 -0.295 -06° 30' 27.10" 1.000E-01 0.500 F 0.218 -0.006 o 691 0.60 Yes No
2004TD10 O C H 2017-09-19.44100 1.000E-05 03:18:46.240 1.500E-01 0.500 F -0.314 0.229 +00° 13' 24.20" 1.000E-01 0.500 F 0.190 -0.028 19.6 R 0.70 0.56 o 691 0.47 Yes Yes
2004TD10 O C H 2017-09-19.44620 1.000E-05 03:18:44.550 1.500E-01 0.500 F -0.314 0.376 +00° 13' 10.80" 1.000E-01 0.500 F 0.190 0.260 19.5 R 0.70 0.46 o 691 0.92 Yes Yes
2004TD10 O C H 2017-09-19.45141 1.000E-05 03:18:42.820 1.500E-01 0.500 F -0.314 -0.016 +00° 12' 56.40" 1.000E-01 0.500 F 0.190 -0.421 o 691 0.85 Yes No
2017SM10 O C K 2017-09-19.48872 1.000E-05 00:58:57.860 1.500E-01 0.500 F -0.367 0.189 -12° 00' 31.20" 1.000E-01 0.500 F 0.096 0.448 20.4 R 0.70 0.36 o 691 0.98 Yes Yes
2017SM10 O C K 2017-09-19.49708 1.000E-05 00:58:57.630 1.500E-01 0.500 F -0.367 0.406 -12° 00' 05.80" 1.000E-01 0.500 F 0.096 -0.191 o 691 0.91 Yes No
2017SM10 O C K 2017-09-19.50536 1.000E-05 00:58:57.430 1.500E-01 0.500 F -0.367 0.960 -11° 59' 39.70" 1.000E-01 0.500 F 0.096 0.110 20.4 R 0.70 0.36 o 691 1.95 Yes Yes
2017SM10 O C K 2017-09-20.40705 1.000E-05 00:58:39.490 1.500E-01 0.500 F -0.329 -0.089 -11° 13' 38.50" 1.000E-01 0.500 F 0.074 -0.079 o 691 0.24 Yes No
2017SM10 O C K 2017-09-20.40976 1.000E-05 00:58:39.380 1.500E-01 0.500 F -0.329 -0.312 -11° 13' 30.20" 1.000E-01 0.500 F 0.074 -0.075 o 691 0.65 Yes No
2017SM10 O C K 2017-09-20.41247 1.000E-05 00:58:39.300 1.500E-01 0.500 F -0.329 -0.097 -11° 13' 22.10" 1.000E-01 0.500 F 0.074 -0.273 o 691 0.58 Yes No
2017SQ11 O C K 2017-09-20.46604 1.000E-05 02:34:13.650 1.500E-01 0.500 F -0.175 -0.586 +05° 26' 03.50" 1.000E-01 0.500 F 0.197 -0.082 o 691 1.19 Yes No
2017PC27 O C 2017-09-20.46604 1.000E-05 02:36:30.390 1.500E-01 0.500 F -0.208 -0.722 +05° 01' 18.60" 1.000E-01 0.500 F 0.193 -0.093 20.7 V 0.70 0.48 o 691 1.46 Yes Yes
2017SQ11 O C K 2017-09-20.47692 1.000E-05 02:34:13.990 1.500E-01 0.500 F -0.175 -0.162 +05° 26' 23.20" 1.000E-01 0.500 F 0.197 0.057 o 691 0.35 Yes No
2017PC27 O C 2017-09-20.47692 1.000E-05 02:36:31.080 1.500E-01 0.500 F -0.208 -0.389 +05° 00' 58.40" 1.000E-01 0.500 F 0.193 0.234 20.1 V 0.70 -0.12 o 691 0.92 Yes Yes
2017SQ11 O C K 2017-09-20.48781 1.000E-05 02:34:14.300 1.500E-01 0.500 F -0.175 -0.211 +05° 26' 42.90" 1.000E-01 0.500 F 0.197 0.176 o 691 0.56 Yes No
2017PC27 O C 2017-09-20.48781 1.000E-05 02:36:31.760 1.500E-01 0.500 F -0.208 -0.252 +05° 00' 37.60" 1.000E-01 0.500 F 0.193 -0.010 19.9 V 0.70 -0.32 o 691 0.51 Yes Yes
2017SK10 O C K 2017-09-21.17447 1.000E-05 23:44:52.220 1.500E-01 0.500 F -0.236 0.471 -14° 36' 27.00" 1.000E-01 0.500 F 0.298 0.340 o 691 1.19 Yes No
2017SK10 O C K 2017-09-21.18820 1.000E-05 23:44:46.570 1.500E-01 0.500 F -0.236 0.347 -14° 36' 20.40" 1.000E-01 0.500 F 0.298 -0.236 o 691 0.86 Yes No
2017SK10 O C K 2017-09-21.20194 1.000E-05 23:44:40.890 1.500E-01 0.500 F -0.236 -0.159 -14° 36' 13.30" 1.000E-01 0.500 F 0.298 -0.349 o 691 0.79 Yes No
2017SJ10 O C H 2017-09-21.26161 1.000E-05 00:38:39.630 1.500E-01 0.500 F -0.454 0.176 -07° 49' 58.00" 1.000E-01 0.500 F 0.191 -0.035 o 691 0.37 Yes No
2017SJ10 O C H 2017-09-21.27403 1.000E-05 00:38:38.420 1.500E-01 0.500 F -0.454 -0.388 -07° 49' 28.30" 1.000E-01 0.500 F 0.191 -0.635 o 691 1.51 Yes No
2017SJ10 O C H 2017-09-21.28642 1.000E-05 00:38:37.270 1.500E-01 0.500 F -0.454 -0.031 -07° 48' 57.60" 1.000E-01 0.500 F 0.191 -0.173 o 691 0.36 Yes No
2017SN10 O C K 2017-09-21.31652 1.000E-05 01:16:36.090 1.500E-01 0.500 F -0.251 0.050 +10° 41' 39.40" 1.000E-01 0.500 F 0.356 0.168 o 691 0.35 Yes No
2017RV2 O C 2017-09-21.32037 1.000E-05 01:25:30.740 1.500E-01 0.500 F -0.150 -0.252 +08° 09' 20.10" 1.000E-01 0.500 F 0.304 -0.074 20.1 V 0.70 -0.11 o 691 0.53 Yes Yes
2017SN10 O C K 2017-09-21.32491 1.000E-05 01:16:34.390 1.500E-01 0.500 F -0.251 -0.197 +10° 40' 58.90" 1.000E-01 0.500 F 0.356 0.319 o 691 0.76 Yes No
2017RV2 O C 2017-09-21.32876 1.000E-05 01:25:31.740 1.500E-01 0.500 F -0.150 -0.051 +08° 09' 29.50" 1.000E-01 0.500 F 0.304 -0.124 20.0 V 0.70 -0.21 o 691 0.27 Yes Yes
2017SN10 O C K 2017-09-21.33328 1.000E-05 01:16:32.710 1.500E-01 0.500 F -0.251 -0.137 +10° 40' 17.70" 1.000E-01 0.500 F 0.356 -0.286 o 691 0.64 Yes No
2017RV2 O C 2017-09-21.33712 1.000E-05 01:25:32.730 1.500E-01 0.500 F -0.150 0.228 +08° 09' 39.20" 1.000E-01 0.500 F 0.304 0.258 20.2 V 0.70 -0.01 o 691 0.70 Yes Yes
2006TU7 O C K 2017-09-21.49232 1.000E-05 03:30:17.790 1.500E-01 0.500 F -0.094 -0.407 +03° 05' 27.80" 1.000E-01 0.500 F 0.183 0.116 o 691 0.85 Yes No
2006TU7 O C K 2017-09-21.49722 1.000E-05 03:30:18.250 1.500E-01 0.500 F -0.094 -0.010 +03° 05' 20.40" 1.000E-01 0.500 F 0.183 -0.214 o 691 0.43 Yes No
2006TU7 O C K 2017-09-21.50226 1.000E-05 03:30:18.700 1.500E-01 0.500 F -0.094 0.041 +03° 05' 13.10" 1.000E-01 0.500 F 0.183 -0.239 o 691 0.49 Yes No
2017RL1 O C K 2017-09-22.10210 1.000E-05 18:11:20.820 1.500E-01 0.500 F -0.096 0.340 +15° 17' 29.00" 1.000E-01 0.500 F 0.239 0.094 o 691 0.75 Yes No
2017RL1 O C K 2017-09-22.10790 1.000E-05 18:11:21.770 1.500E-01 0.500 F -0.096 0.056 +15° 17' 29.30" 1.000E-01 0.500 F 0.239 0.025 o 691 0.13 Yes No
2017RL1 O C K 2017-09-22.11371 1.000E-05 18:11:22.740 1.500E-01 0.500 F -0.096 0.033 +15° 17' 29.50" 1.000E-01 0.500 F 0.239 -0.141 o 691 0.29 Yes No
2017SY11 O C H 2017-09-22.24194 1.000E-05 00:21:40.900 1.500E-01 0.500 F -0.177 -0.049 +24° 00' 56.70" 1.000E-01 0.500 F 0.310 0.196 o 691 0.41 Yes No
2017SY11 O C H 2017-09-22.25031 1.000E-05 00:21:41.120 1.500E-01 0.500 F -0.177 0.033 +24° 01' 03.50" 1.000E-01 0.500 F 0.310 0.401 o 691 0.81 Yes No
2017SY11 O C H 2017-09-22.25868 1.000E-05 00:21:41.340 1.500E-01 0.500 F -0.177 0.146 +24° 01' 09.70" 1.000E-01 0.500 F 0.310 0.035 o 691 0.30 Yes No
1998ST4 O C 2017-09-22.32541 1.000E-05 00:30:45.890 1.500E-01 0.500 F -0.193 -0.116 +23° 22' 48.60" 1.000E-01 0.500 F 0.303 -0.037 17.7 V 0.70 -0.13 o 691 0.24 Yes Yes
1998ST4 O C 2017-09-22.33323 1.000E-05 00:30:45.570 1.500E-01 0.500 F -0.193 -0.273 +23° 22' 49.00" 1.000E-01 0.500 F 0.303 0.031 17.7 V 0.70 -0.13 o 691 0.55 Yes Yes
1998ST4 O C 2017-09-22.34216 1.000E-05 00:30:45.220 1.500E-01 0.500 F -0.193 -0.239 +23° 22' 49.40" 1.000E-01 0.500 F 0.303 0.068 17.9 V 0.70 0.07 o 691 0.50 Yes Yes
2017SG10 O C K 2017-09-22.36859 1.000E-05 00:06:57.590 1.500E-01 0.500 F -0.216 -0.821 -16° 56' 46.00" 1.000E-01 0.500 F 0.193 0.170 o 691 1.81 Yes No
2017SG10 O C K 2017-09-22.37467 1.000E-05 00:06:54.040 1.500E-01 0.500 F -0.216 -0.629 -16° 56' 04.40" 1.000E-01 0.500 F 0.193 -0.047 o 691 1.36 Yes No
2017SG10 O C K 2017-09-22.38197 1.000E-05 00:06:49.760 1.500E-01 0.500 F -0.216 -0.676 -16° 55' 13.90" 1.000E-01 0.500 F 0.193 0.208 o 691 1.53 Yes No
2017SM12 O C K 2017-09-24.15611 1.000E-05 22:38:25.200 1.500E-01 0.500 F -0.091 -0.237 +17° 47' 39.00" 1.000E-01 0.500 F 0.273 0.083 o 691 0.51 Yes No
2017SM12 O C K 2017-09-24.16914 1.000E-05 22:38:25.470 1.500E-01 0.500 F -0.091 0.588 +17° 49' 47.00" 1.000E-01 0.500 F 0.273 0.043 o 691 1.20 Yes No
2017SG12 O C K 2017-09-25.34983 1.000E-05 00:20:31.900 1.500E-01 0.500 F -0.156 0.217 +01° 57' 58.00" 1.000E-01 0.500 F 0.360 -0.033 o 691 0.45 Yes No
2017SG12 O C K 2017-09-25.35570 1.000E-05 00:20:32.020 1.500E-01 0.500 F -0.156 0.232 +01° 58' 05.60" 1.000E-01 0.500 F 0.360 0.113 o 691 0.54 Yes No
2017SG12 O C K 2017-09-25.36163 1.000E-05 00:20:32.150 1.500E-01 0.500 F -0.156 0.368 +01° 58' 12.70" 1.000E-01 0.500 F 0.360 -0.316 o 691 1.00 Yes No
2017SF12 O C K 2017-09-25.37048 1.000E-05 00:38:59.770 1.500E-01 0.500 F -0.292 0.360 -02° 21' 00.70" 1.000E-01 0.500 F 0.230 0.451 o 691 1.21 Yes No
2017SF12 O C K 2017-09-25.37414 1.000E-05 00:39:00.650 1.500E-01 0.500 F -0.292 -0.001 -02° 21' 27.20" 1.000E-01 0.500 F 0.230 -0.315 o 691 0.65 Yes No
2017SF12 O C K 2017-09-25.37779 1.000E-05 00:39:01.550 1.500E-01 0.500 F -0.292 -0.034 -02° 21' 52.70" 1.000E-01 0.500 F 0.230 -0.153 o 691 0.33 Yes No
2017SL12 O C K 2017-09-25.44313 1.000E-05 04:47:50.330 1.500E-01 0.500 F -0.118 0.874 +13° 22' 43.00" 1.000E-01 0.500 F 0.097 0.242 o 691 1.85 Yes No
2017SL12 O C K 2017-09-25.46199 1.000E-05 04:47:57.080 1.500E-01 0.500 F -0.118 1.090 +13° 22' 28.10" 1.000E-01 0.500 F 0.097 -0.194 o 691 2.27 Yes No
2017SL12 O C K 2017-09-25.48206 1.000E-05 04:48:04.240 1.500E-01 0.500 F -0.118 1.144 +13° 22' 12.60" 1.000E-01 0.500 F 0.097 -0.176 o 691 2.37 Yes No
2017SH10 O C K 2017-09-26.11508 1.000E-05 20:45:16.660 1.500E-01 0.500 F -0.075 0.846 -11° 10' 51.80" 1.000E-01 0.500 F 0.410 -0.293 20.4 R 0.70 0.79 o 691 1.80 Yes Yes
2017SH10 O C K 2017-09-26.12660 1.000E-05 20:45:19.240 1.500E-01 0.500 F -0.075 -0.027 -11° 10' 28.40" 1.000E-01 0.500 F 0.410 -0.442 19.3 R 0.70 -0.31 o 691 0.89 Yes Yes
2017SH10 O C K 2017-09-26.13564 1.000E-05 20:45:21.350 1.500E-01 0.500 F -0.075 0.568 -11° 10' 09.50" 1.000E-01 0.500 F 0.410 -0.036 19.5 R 0.70 -0.12 o 691 1.14 Yes Yes
2017SG14 O C K 2017-09-26.19377 1.000E-05 22:05:21.500 1.500E-01 0.500 F -0.089 -0.441 +01° 18' 03.50" 1.000E-01 0.500 F 0.268 -0.219 19.6 R 0.70 -0.85 o 691 0.99 Yes Yes
2017RO2 O C K 2017-09-26.19960 1.000E-05 22:21:05.430 1.500E-01 0.500 F 0.033 0.228 -05° 21' 12.10" 1.000E-01 0.500 F 0.127 -0.383 o 691 0.91 Yes No
2017RV15 O C K 2017-09-26.20888 1.000E-05 22:12:02.930 1.500E-01 0.500 F -0.073 0.149 +05° 50' 04.60" 1.000E-01 0.500 F 0.445 -0.047 o 691 0.32 Yes No
2017RO2 O C K 2017-09-26.21120 1.000E-05 22:21:03.310 1.500E-01 0.500 F 0.033 0.131 -05° 20' 37.00" 1.000E-01 0.500 F 0.127 -0.078 19.5 R 0.70 -0.69 o 691 0.31 Yes Yes
2017SG14 O C K 2017-09-26.21697 1.000E-05 22:05:19.530 1.500E-01 0.500 F -0.089 -0.125 +01° 16' 12.60" 1.000E-01 0.500 F 0.268 -0.167 19.9 R 0.70 -0.55 o 691 0.42 Yes Yes
2017RV15 O C K 2017-09-26.22050 1.000E-05 22:11:59.610 1.500E-01 0.500 F -0.073 0.208 +05° 50' 53.80" 1.000E-01 0.500 F 0.445 -0.241 o 691 0.64 Yes No
2017RO2 O C K 2017-09-26.22281 1.000E-05 22:21:01.220 1.500E-01 0.500 F 0.033 0.503 -05° 20' 02.30" 1.000E-01 0.500 F 0.127 -0.204 o 691 1.11 Yes No
2017FE1 O C H 2017-09-26.23187 1.000E-05 23:41:31.820 1.500E-01 0.500 F -0.156 -1.531 -09° 45' 07.20" 1.000E-01 0.500 F 0.095 -0.243 20.2 R 0.70 -0.15 o 691 3.09 No Yes
2017FE1 O C H 2017-09-26.24197 1.000E-05 23:41:31.230 1.500E-01 0.500 F -0.156 0.780 -09° 45' 07.30" 1.000E-01 0.500 F 0.095 -0.444 20.8 R 0.70 0.45 o 691 1.80 Yes Yes
2017FE1 O C H 2017-09-26.25202 1.000E-05 23:41:30.430 1.500E-01 0.500 F -0.156 -0.060 -09° 45' 05.90" 1.000E-01 0.500 F 0.095 0.847 20.6 R 0.70 0.25 o 691 1.70 Yes Yes
2017RV2 O C H 2017-09-26.42791 1.000E-05 01:35:52.600 1.500E-01 0.500 F -0.176 0.288 +09° 04' 17.80" 1.000E-01 0.500 F 0.298 -0.457 o 691 1.09 Yes No
2017RV2 O C H 2017-09-26.44469 1.000E-05 01:35:52.830 1.500E-01 0.500 F -0.176 -1.453 +09° 04' 23.30" 1.000E-01 0.500 F 0.298 -0.084 20.8 R 0.70 0.07 o 691 2.97 Yes Yes
2017RV2 O C H 2017-09-26.46142 1.000E-05 01:35:53.290 1.500E-01 0.500 F -0.176 -0.477 +09° 04' 28.50" 1.000E-01 0.500 F 0.298 0.226 21.1 R 0.70 0.37 o 691 1.07 Yes Yes
1989UP O C H 2017-09-26.47146 1.000E-05 01:40:38.230 1.500E-01 0.500 F -0.199 -0.185 -06° 41' 34.10" 1.000E-01 0.500 F 0.218 -0.074 18.6 R 0.70 0.36 o 691 0.40 Yes Yes
2017RR15 O C H 2017-09-26.47306 1.000E-05 01:57:38.880 1.500E-01 0.500 F -0.313 0.048 +03° 34' 30.40" 1.000E-01 0.500 F 0.181 0.247 19.5 R 0.70 0.60 o 691 0.51 Yes Yes
2017RR15 O C H 2017-09-26.48302 1.000E-05 01:57:37.970 1.500E-01 0.500 F -0.313 -0.109 +03° 34' 55.70" 1.000E-01 0.500 F 0.181 0.198 19.8 R 0.70 0.90 o 691 0.45 Yes Yes
1989UP O C H 2017-09-26.49137 1.000E-05 01:40:40.380 1.500E-01 0.500 F -0.199 -0.084 -06° 41' 34.20" 1.000E-01 0.500 F 0.218 0.140 18.4 R 0.70 0.16 o 691 0.33 Yes Yes
2017RR15 O C H 2017-09-26.49297 1.000E-05 01:57:37.130 1.500E-01 0.500 F -0.313 0.714 +03° 35' 21.00" 1.000E-01 0.500 F 0.181 0.162 19.5 R 0.70 0.60 o 691 1.47 Yes Yes
2017SH10 O C K 2017-09-27.14566 1.000E-05 20:49:21.870 1.500E-01 0.500 F -0.121 -0.332 -10° 35' 54.40" 1.000E-01 0.500 F 0.420 -0.593 o 691 1.37 Yes No
2017SH10 O C K 2017-09-27.16211 1.000E-05 20:49:25.640 1.500E-01 0.500 F -0.121 0.417 -10° 35' 20.60" 1.000E-01 0.500 F 0.420 0.017 o 691 0.84 Yes No
2017SH10 O C K 2017-09-27.17849 1.000E-05 20:49:29.270 1.500E-01 0.500 F -0.121 -0.657 -10° 34' 47.80" 1.000E-01 0.500 F 0.420 -0.272 o 691 1.43 Yes No
2017RL2 O C K 2017-09-27.19442 1.000E-05 21:55:53.830 1.500E-01 0.500 F -0.104 0.736 -03° 12' 11.00" 1.000E-01 0.500 F 0.219 0.703 o 691 2.17 Yes No
2017RL2 O C K 2017-09-27.20873 1.000E-05 21:55:53.900 1.500E-01 0.500 F -0.104 -0.737 -03° 11' 35.80" 1.000E-01 0.500 F 0.219 -0.905 o 691 2.48 Yes No
2017SG14 O C K 2017-09-27.21696 1.000E-05 22:04:01.520 1.500E-01 0.500 F -0.082 0.368 -00° 03' 08.10" 1.000E-01 0.500 F 0.220 0.074 o 691 0.75 Yes No
2017RL2 O C K 2017-09-27.22475 1.000E-05 21:55:54.170 1.500E-01 0.500 F -0.104 0.453 -03° 10' 54.20" 1.000E-01 0.500 F 0.219 -0.550 20.3 R 0.70 -1.06 o 691 1.51 Yes Yes
2017SG14 O C K 2017-09-27.23297 1.000E-05 22:04:00.170 1.500E-01 0.500 F -0.082 -0.156 -00° 04' 23.80" 1.000E-01 0.500 F 0.220 0.225 21.2 R 0.70 0.72 o 691 0.55 Yes Yes
2017RO2 O C K 2017-09-27.23864 1.000E-05 22:18:14.680 1.500E-01 0.500 F -0.025 -0.089 -04° 30' 10.10" 1.000E-01 0.500 F 0.120 -0.276 o 691 0.59 Yes No
2017RO2 O C K 2017-09-27.25512 1.000E-05 22:18:11.870 1.500E-01 0.500 F -0.025 -0.043 -04° 29' 21.90" 1.000E-01 0.500 F 0.120 0.249 19.8 R 0.70 -0.47 o 691 0.51 Yes Yes
2017RO2 O C K 2017-09-27.27180 1.000E-05 22:18:09.040 1.500E-01 0.500 F -0.025 0.101 -04° 28' 33.90" 1.000E-01 0.500 F 0.120 0.000 19.9 R 0.70 -0.38 o 691 0.21 Yes Yes
2017FE1 O C H 2017-09-27.39829 1.000E-05 23:40:12.790 1.500E-01 0.500 F -0.156 -0.112 -09° 44' 40.60" 1.000E-01 0.500 F 0.095 0.187 o 691 0.44 Yes No
2017FE1 O C H 2017-09-27.40618 1.000E-05 23:40:12.260 1.500E-01 0.500 F -0.156 0.097 -09° 44' 40.70" 1.000E-01 0.500 F 0.095 -0.224 o 691 0.49 Yes No
2017FE1 O C H 2017-09-27.41404 1.000E-05 23:40:11.700 1.500E-01 0.500 F -0.156 -0.191 -09° 44' 40.70" 1.000E-01 0.500 F 0.095 -0.538 o 691 1.14 Yes No
2017HH O C 2017-09-27.45719 1.000E-05 03:38:00.860 1.500E-01 0.500 F -0.438 0.156 +12° 23' 10.80" 1.000E-01 0.500 F 0.243 -0.061 19.5 V 0.70 0.14 o 691 0.34 Yes Yes
2017HH O C 2017-09-27.46412 1.000E-05 03:37:59.570 1.500E-01 0.500 F -0.438 0.013 +12° 23' 20.10" 1.000E-01 0.500 F 0.243 -0.051 19.6 V 0.70 0.24 o 691 0.11 Yes Yes
2017HH O C 2017-09-27.47103 1.000E-05 03:37:58.270 1.500E-01 0.500 F -0.438 -0.334 +12° 23' 29.50" 1.000E-01 0.500 F 0.243 0.095 19.7 V 0.70 0.34 o 691 0.70 Yes Yes
2017RY15 O C 2017-09-28.25956 1.000E-05 22:45:08.660 1.500E-01 0.500 F -0.133 -0.580 +07° 59' 52.20" 1.000E-01 0.500 F 0.226 0.723 19.4 V 0.70 -0.34 o 691 1.88 Yes Yes
2017RY15 O C 2017-09-28.27068 1.000E-05 22:45:04.020 1.500E-01 0.500 F -0.184 -0.542 +08° 00' 45.70" 1.000E-01 0.500 F 0.223 -0.111 19.6 V 0.70 -0.15 o 691 1.12 Yes Yes
2017RY15 O C 2017-09-28.28178 1.000E-05 22:44:59.410 1.500E-01 0.500 F -0.184 -0.291 +08° 01' 39.90" 1.000E-01 0.500 F 0.223 -0.108 19.7 V 0.70 -0.05 o 691 0.62 Yes Yes
2010LJ14 O C 2017-09-28.34683 1.000E-05 00:59:58.630 1.500E-01 0.500 F -0.255 -0.122 -00° 23' 47.10" 1.000E-01 0.500 F 0.187 -0.156 o 691 0.40 Yes No
2010LJ14 O C 2017-09-28.35740 1.000E-05 00:59:58.000 1.500E-01 0.500 F -0.255 -0.134 -00° 24' 03.70" 1.000E-01 0.500 F 0.187 -0.246 o 691 0.56 Yes No
2010LJ14 O C 2017-09-28.36795 1.000E-05 00:59:57.380 1.500E-01 0.500 F -0.255 -0.019 -00° 24' 20.00" 1.000E-01 0.500 F 0.187 -0.064 o 691 0.13 Yes No
1998RO4 O C 2017-09-28.43188 1.000E-05 04:51:49.720 1.500E-01 0.500 F -0.180 -0.173 +18° 14' 19.40" 1.000E-01 0.500 F 0.261 0.420 o 691 0.91 Yes No
1998RO4 O C 2017-09-28.44257 1.000E-05 04:51:49.840 1.500E-01 0.500 F -0.180 -0.451 +18° 14' 16.60" 1.000E-01 0.500 F 0.261 0.047 o 691 0.91 Yes No
1998RO4 O C 2017-09-28.45340 1.000E-05 04:51:50.000 1.500E-01 0.500 F -0.180 -0.172 +18° 14' 14.30" 1.000E-01 0.500 F 0.261 0.215 o 691 0.55 Yes No
2014VU1 O C 2017-09-28.46277 1.000E-05 05:39:49.020 1.500E-01 0.500 F -0.196 -0.215 +03° 14' 01.40" 1.000E-01 0.500 F 0.118 -0.381 o 691 0.89 Yes No
2014VU1 O C 2017-09-28.47232 1.000E-05 05:39:50.210 1.500E-01 0.500 F -0.196 -0.639 +03° 14' 14.30" 1.000E-01 0.500 F 0.118 -0.198 o 691 1.36 Yes No
2014VU1 O C 2017-09-28.48187 1.000E-05 05:39:51.440 1.500E-01 0.500 F -0.196 -0.450 +03° 14' 27.00" 1.000E-01 0.500 F 0.118 -0.215 o 691 1.01 Yes No
2017SX17 O C 2017-09-29.30384 1.000E-05 23:40:44.350 1.500E-01 0.612 F -0.147 -1.248 +04° 07' 32.50" 1.000E-01 0.612 F 0.260 0.582 19.6 V 0.70 0.35 o 691 2.26 Yes Yes
2017SX17 O C 2017-09-29.31896 1.000E-05 23:40:39.340 1.500E-01 0.612 F -0.147 0.270 +04° 08' 17.30" 1.000E-01 0.612 F 0.260 -0.781 19.6 V 0.70 0.36 o 691 1.36 Yes Yes
2017SX17 O C 2017-09-29.33402 1.000E-05 23:40:34.280 1.500E-01 0.612 F -0.147 -0.097 +04° 09' 03.80" 1.000E-01 0.612 F 0.260 -0.301 19.7 V 0.70 0.47 o 691 0.52 Yes Yes

[1-200] [201-400] [401-600] [601-800] [801-1000] [1001-1200] [1201-1400] [1401-1600] [1601-1800] [1801-2000] [2001-2200] [2201-2400] [2401-2600] [2601-2800] [2801-3000] [3001-3200] [3201-3400] [3401-3600] [3601-3800] [3801-4000] [4001-4200] [4201-4400] [4401-4600] [4601-4800] [4801-5000] [5001-5200] [5201-5400] [5401-5600] [5601-5800] [5801-6000] [6001-6200] [6201-6400] [6401-6600] [6601-6800] [6801-7000] [7001-7200] [7201-7400] [7401-7600] [7601-7800] [7801-8000] [8001-8200] [8201-8400] [8401-8600] [8601-8800] [8801-9000] [9001-9200] [9201-9400] [9401-9600] [9601-9800] [9801-10000] [10001-10200] [10201-10400] [10401-10600] [10601-10800] [10801-11000] [11001-11200] [11201-11400] [11401-11600] [11601-11800] [11801-12000] [12001-12200] [12201-12400] [12401-12600] [12601-12800] [12801-13000] [13001-13200] [13201-13400] [13401-13600] [13601-13800] [13801-14000] [14001-14200] [14201-14400] [14401-14600] [14601-14800] [14801-15000] [15001-15200] [15201-15400] [15401-15600] [15601-15800] [15801-16000] [16001-16200] [16201-16400] [16401-16600] [16601-16800] [16801-17000] [17001-17200] [17201-17400] [17401-17600] [17601-17800] [17801-18000] [18001-18200] [18201-18400] [18401-18600] [18601-18800] [18801-19000] [19001-19200] [19201-19400] [19401-19600] [19601-19800] [19801-20000] [20001-20200] [20201-20400] [20401-20600] [20601-20800] [20801-21000] [21001-21200] [21201-21400] [21401-21600] [21601-21800] [21801-22000] [22001-22200] [22201-22400] [22401-22600] [22601-22800] [22801-23000] [23001-23200] [23201-23400] [23401-23600] [23601-23800] [23801-24000] [24001-24200] [24201-24400] [24401-24600] [24601-24800] [24801-25000] [25001-25200] [25201-25400] [25401-25600] [25601-25800] [25801-26000] [26001-26200] [26201-26400] [26401-26600] [26601-26800] [26801-27000] [27001-27200] [27201-27400] [27401-27600] [27601-27800] [27801-28000] [28001-28200] [28201-28400] [28401-28600] [28601-28800] [28801-29000] [29001-29200] [29201-29400] [29401-29600] [29601-29800] [29801-30000] [30001-30200] [30201-30400] [30401-30600] [30601-30800] [30801-31000] [31001-31200] [31201-31400] [31401-31600] [31601-31800] [31801-32000] [32001-32200] [32201-32400] [32401-32600] [32601-32800] [32801-33000] [33001-33200] [33201-33400] [33401-33600] [33601-33800] [33801-34000] [34001-34200] [34201-34400] [34401-34600] [34601-34800] [34801-35000] [35001-35200] [35201-35400] [35401-35600] [35601-35800] [35801-36000] [36001-36200] [36201-36400] [36401-36600] [36601-36800] [36801-37000] [37001-37200] [37201-37400] [37401-37600] [37601-37800] [37801-38000] [38001-38200] [38201-38400] [38401-38600] [38601-38800] [38801-39000] [39001-39200] [39201-39400] [39401-39600] [39601-39800] [39801-40000] [40001-40200] [40201-40400] [40401-40600] [40601-40800] [40801-41000] [41001-41200] [41201-41400] [41401-41600] [41601-41800] [41801-42000] [42001-42200] [42201-42400] [42401-42600] [42601-42800] [42801-43000] [43001-43200] [43201-43400] [43401-43600] [43601-43800] [43801-44000] [44001-44200] [44201-44400] [44401-44600] [44601-44800] [44801-45000] [45001-45200] [45201-45400] [45401-45600] [45601-45800] [45801-46000] [46001-46200] [46201-46400] [46401-46600] [46601-46800] [46801-47000] [47001-47200] [47201-47400] [47401-47600] [47601-47800] [47801-48000] [48001-48200] [48201-48400] [48401-48600] [48601-48800] [48801-49000] [49001-49200] [49201-49400] [49401-49600] [49601-49800] [49801-50000] [50001-50200] [50201-50388]